• Join FlightAware (Why Join?)
  • Login
  • US Flag 
12:53AM EDT


 

Airport Tracker/Info


-or-


 

Live Flight TrackerFlight Track Log ✈ PDC2807 ✈ 05-Dec-2013 ✈ ZYHB / HRB - ZYMD / MDG

Flight Track Log - Related Links

Times and Time Zones

All times are in EST time to prevent confusion due to time zone crossing. See the PDC2807 flight status page for this flight to view local times or setup timezone preferences in your user account.

Time Position Orientation Groundspeed Altitude Reporting Facility
EST Latitude Longitude Course Direction KTS MPH feet Rate Location/Type
07:39PM 45.3899 126.9912 114° Southeast  Level Estimated
07:40PM 45.3684 127.0583 114° Southeast  Level Estimated
07:41PM 45.3469 127.1253 115° Southeast  Level Estimated
07:42PM 45.3254 127.1923 115° Southeast  Level Estimated
07:43PM 45.3038 127.2591 115° Southeast  Level Estimated
07:44PM 45.2822 127.3260 115° Southeast  Level Estimated
07:45PM 45.2605 127.3928 115° Southeast  Level Estimated
07:46PM 45.2388 127.4595 115° Southeast  Level Estimated
07:47PM 45.2171 127.5262 115° Southeast  Level Estimated
07:48PM 45.1953 127.5929 115° Southeast  Level Estimated
07:49PM 45.1735 127.6595 115° Southeast  Level Estimated
07:50PM 45.1516 127.7260 115° Southeast  Level Estimated
07:51PM 45.1298 127.7925 115° Southeast  Level Estimated
07:52PM 45.1078 127.8589 115° Southeast  Level Estimated
07:53PM 45.0859 127.9253 115° Southeast  Level Estimated
07:54PM 45.0639 127.9917 115° Southeast  Level Estimated
07:55PM 45.0418 128.0580 115° Southeast  Level Estimated
07:56PM 45.0197 128.1242 115° Southeast  Level Estimated
07:57PM 44.9976 128.1904 115° Southeast  Level Estimated
07:58PM 44.9754 128.2565 115° Southeast  Level Estimated
07:59PM 44.9532 128.3226 115° Southeast  Level Estimated
08:00PM 44.9310 128.3886 115° Southeast  Level Estimated
08:01PM 44.9087 128.4546 115° Southeast  Level Estimated
08:02PM 44.8864 128.5205 116° Southeast  Level Estimated
08:03PM 44.8641 128.5864 116° Southeast  Level Estimated
08:04PM 44.8417 128.6522 116° Southeast  Level Estimated
08:05PM 44.8192 128.7180 116° Southeast  Level Estimated
08:06PM 44.7968 128.7837 116° Southeast  Level Estimated
08:07PM 44.7743 128.8494 116° Southeast  Level Estimated
08:08PM 44.7517 128.9150 116° Southeast  Level Estimated
08:09PM 44.7291 128.9806 116° Southeast  Level Estimated
08:10PM 44.7065 129.0461 116° Southeast  Level Estimated
08:11PM 44.6839 129.1116 116° Southeast  Level Estimated
08:12PM 44.6612 129.1770 116° Southeast  Level Estimated
08:13PM 44.6385 129.2424 116° Southeast  Level Estimated
08:14PM 44.6157 129.3077 116° Southeast  Level Estimated
08:15PM 44.5929 129.3729 116° Southeast  Level Estimated
08:16PM 44.5701 129.4381 116° Southeast  Level Estimated
08:17PM 44.5472 129.5033 116° Southeast  Level Estimated
08:18PM 44.5243 129.5684 116° Southeast  Level Estimated
08:19PM 44.5241 129.5690 116° Southeast  Level Estimated
08:20PM 44.5241 129.5690 35° Northeast  Level Estimated
08:21PM 44.5241 129.5690 35° Northeast  Level Estimated
08:22PM 44.5241 129.5690 35° Northeast  Level Estimated
08:23PM 44.5241 129.5690 35° Northeast  Level Estimated
08:24PM 44.5241 129.5690 35° Northeast  Level Estimated
08:25PM 44.5241 129.5690 35° Northeast  Level Estimated
08:26PM 44.5241 129.5690 35° Northeast  Level Estimated
08:27PM 44.5241 129.5690 35° Northeast  Level Estimated